Time;durP1;ratioP1;P1;durP2;ratioP2;P2;SDS_P1;SDS_P2;PMS_P1;PMS_P2;Temp;Humidity;BMP_temperature;BMP_pressure;BME280_temperature;BME280_humidity;BME280_pressure;Samples;Min_cycle;Max_cycle;Signal;HPM_P1;HPM_P2
2021/08/09 00:01:08;;;;;;;2.75;1.30;;;;;;;17.29;68.60;100275.41;2045928;84;21117;-72
2021/08/09 00:04:09;;;;;;;3.42;1.22;;;;;;;17.20;68.59;100278.82;2038843;85;21140;-73
2021/08/09 00:07:11;;;;;;;1.60;1.50;;;;;;;17.16;68.72;100285.64;2043105;84;21060;-72
2021/08/09 00:10:13;;;;;;;3.90;1.50;;;;;;;17.10;68.65;100285.13;2039238;83;21137;-73
2021/08/09 00:13:14;;;;;;;2.67;1.57;;;;;;;17.02;68.81;100288.30;2064001;84;21130;-70
2021/08/09 00:16:15;;;;;;;2.95;1.42;;;;;;;16.96;68.79;100290.98;2030631;84;21201;-70
2021/08/09 00:19:17;;;;;;;2.05;1.60;;;;;;;16.86;68.79;100286.53;2051752;84;21359;-69
2021/08/09 00:22:18;;;;;;;3.15;1.40;;;;;;;16.79;68.92;100287.87;2033231;85;21136;-74
2021/08/09 00:25:19;;;;;;;3.30;1.57;;;;;;;16.73;68.99;100281.95;2025589;85;21483;-70
2021/08/09 00:28:20;;;;;;;3.83;1.37;;;;;;;16.67;69.12;100287.61;2062255;84;21173;-73
2021/08/09 00:31:21;;;;;;;3.72;1.90;;;;;;;16.58;69.24;100291.48;2014725;86;21140;-70
2021/08/09 00:34:23;;;;;;;2.12;1.25;;;;;;;16.46;69.45;100287.22;2058859;84;21075;-76
2021/08/09 00:37:24;;;;;;;1.67;1.57;;;;;;;16.27;69.57;100289.31;2058854;84;21647;-71
2021/08/09 00:40:27;;;;;;;2.22;1.40;;;;;;;16.12;69.52;100292.95;2045055;83;21142;-70
2021/08/09 00:43:28;;;;;;;3.92;1.52;;;;;;;16.04;69.57;100300.33;2045463;84;21110;-71
2021/08/09 00:46:30;;;;;;;5.20;1.60;;;;;;;15.96;69.61;100303.16;2037289;86;21090;-71
2021/08/09 00:49:31;;;;;;;2.95;1.52;;;;;;;15.82;69.60;100294.23;2044580;84;21136;-70
2021/08/09 00:52:33;;;;;;;6.45;1.70;;;;;;;15.71;69.57;100300.12;2034771;84;21150;-72
2021/08/09 00:55:37;;;;;;;7.85;1.80;;;;;;;15.58;69.92;100292.30;2023035;85;21105;-70
2021/08/09 00:58:40;;;;;;;5.60;1.32;;;;;;;15.56;70.20;100298.88;2052518;84;21642;-70
2021/08/09 01:01:43;;;;;;;3.37;1.70;;;;;;;15.54;70.78;100302.24;2041396;84;21633;-72
2021/08/09 01:04:47;;;;;;;2.45;1.45;;;;;;;15.44;70.67;100303.41;2048081;84;21161;-69
2021/08/09 01:08:15;;;;;;;4.12;1.35;;;;;;;15.38;70.74;100300.70;2041975;83;21503;-70
2021/08/09 01:11:45;;;;;;;1.70;1.60;;;;;;;15.33;70.77;100299.11;2079600;84;21863;-70
2021/08/09 01:15:10;;;;;;;3.05;1.50;;;;;;;15.30;70.76;100298.16;2017583;85;21050;-72
2021/08/09 01:18:19;;;;;;;5.15;1.00;;;;;;;15.25;70.80;100300.06;2039690;84;21854;-77
2021/08/09 01:21:22;;;;;;;3.62;1.32;;;;;;;15.22;70.77;100299.12;2043538;84;21600;-70
2021/08/09 01:24:29;;;;;;;1.47;1.17;;;;;;;15.21;70.78;100302.82;2039944;84;21073;-70
2021/08/09 01:27:32;;;;;;;2.08;1.42;;;;;;;15.17;70.74;100303.69;2074583;83;21099;-72
2021/08/09 01:30:37;;;;;;;1.35;1.25;;;;;;;15.18;70.77;100316.58;2084381;83;21096;-73
2021/08/09 01:33:40;;;;;;;3.00;1.40;;;;;;;15.16;70.72;100318.60;2089315;82;21154;-70
2021/08/09 01:36:46;;;;;;;1.57;1.35;;;;;;;15.14;70.70;100321.45;2083688;83;21123;-70
2021/08/09 01:39:49;;;;;;;3.17;1.27;;;;;;;15.15;70.75;100329.81;2074519;83;21099;-71
2021/08/09 01:42:51;;;;;;;2.45;1.52;;;;;;;15.13;70.65;100335.84;2080222;83;21118;-70
2021/08/09 01:45:56;;;;;;;2.62;1.20;;;;;;;15.11;70.60;100341.06;2082835;83;21485;-70
2021/08/09 01:49:02;;;;;;;2.67;1.27;;;;;;;15.07;70.54;100341.14;2080212;83;21129;-69
2021/08/09 01:52:05;;;;;;;1.52;1.27;;;;;;;15.04;70.58;100347.69;2082962;83;21565;-70
2021/08/09 01:55:10;;;;;;;2.15;1.00;;;;;;;15.02;70.51;100347.04;2081332;82;21038;-69
2021/08/09 01:58:12;;;;;;;2.20;1.10;;;;;;;14.98;70.46;100345.78;2059847;83;21675;-70
2021/08/09 02:01:15;;;;;;;2.20;1.10;;;;;;;14.96;70.51;100346.47;2081966;82;21092;-71
2021/08/09 02:04:17;;;;;;;1.10;1.00;;;;;;;14.92;70.48;100346.03;2078275;83;21063;-72
2021/08/09 02:07:19;;;;;;;3.25;1.60;;;;;;;14.89;70.52;100356.24;2082544;83;21119;-71
2021/08/09 02:10:24;;;;;;;1.37;1.27;;;;;;;14.87;70.55;100356.97;2080961;83;21127;-70
2021/08/09 02:13:31;;;;;;;2.72;1.30;;;;;;;14.85;70.50;100358.47;2052192;84;21072;-78
2021/08/09 02:16:45;;;;;;;1.85;1.37;;;;;;;14.83;70.49;100365.84;2032439;85;21096;-70
2021/08/09 02:20:03;;;;;;;1.77;1.30;;;;;;;14.80;70.49;100366.22;2071582;82;21091;-70
2021/08/09 02:23:10;;;;;;;2.22;1.20;;;;;;;14.75;70.44;100375.30;2075554;83;21564;-70
2021/08/09 02:26:34;;;;;;;1.45;1.15;;;;;;;14.72;70.46;100381.84;2075066;83;21130;-72
2021/08/09 02:29:41;;;;;;;4.58;1.07;;;;;;;14.66;70.44;100385.27;2031901;85;21115;-70
2021/08/09 02:32:45;;;;;;;2.12;1.65;;;;;;;14.55;70.50;100389.23;2075995;84;21074;-69
2021/08/09 02:35:49;;;;;;;1.98;1.20;;;;;;;14.46;70.62;100392.17;2067048;83;21086;-70
2021/08/09 02:38:53;;;;;;;3.95;1.67;;;;;;;14.37;70.69;100391.44;2067917;83;21106;-71
2021/08/09 02:41:55;;;;;;;3.47;1.30;;;;;;;14.34;70.73;100401.98;2059048;84;21169;-73
2021/08/09 02:44:59;;;;;;;2.27;1.30;;;;;;;14.33;70.75;100412.83;2061040;83;21669;-70
2021/08/09 02:48:01;;;;;;;1.90;1.20;;;;;;;14.26;70.75;100411.41;2067285;83;21128;-70
2021/08/09 02:51:04;;;;;;;8.23;1.90;;;;;;;14.14;70.83;100424.89;2061057;84;21090;-73
2021/08/09 02:54:08;;;;;;;3.70;1.35;;;;;;;14.03;70.67;100424.00;2072892;83;21055;-70
2021/08/09 02:57:10;;;;;;;1.42;1.12;;;;;;;13.88;70.86;100423.95;2077970;82;21150;-71
2021/08/09 03:00:12;;;;;;;1.60;1.30;;;;;;;13.80;71.23;100434.21;2068665;83;21047;-71
2021/08/09 03:03:16;;;;;;;4.97;1.50;;;;;;;13.72;71.35;100440.95;2082634;83;21152;-72
2021/08/09 03:06:18;;;;;;;2.10;1.07;;;;;;;13.67;71.20;100441.98;2057517;84;21059;-70
2021/08/09 03:09:21;;;;;;;2.65;1.20;;;;;;;13.62;71.21;100447.02;2073143;84;21131;-70
2021/08/09 03:12:23;;;;;;;5.90;1.30;;;;;;;13.56;71.44;100447.22;2059965;83;21197;-70
2021/08/09 03:15:25;;;;;;;3.02;1.50;;;;;;;13.53;71.32;100448.09;2068258;83;21137;-70
2021/08/09 03:18:33;;;;;;;2.65;1.27;;;;;;;13.48;71.30;100448.61;2070763;83;21628;-73
2021/08/09 03:21:33;;;;;;;2.75;1.50;;;;;;;13.48;71.70;100451.79;2057582;83;21125;-70
2021/08/09 03:24:34;;;;;;;7.17;1.30;;;;;;;13.43;71.71;100459.83;2061572;84;21158;-70
2021/08/09 03:27:35;;;;;;;4.62;0.95;;;;;;;13.41;71.63;100462.34;2068208;83;21052;-70
2021/08/09 03:30:37;;;;;;;1.82;1.20;;;;;;;13.36;71.63;100469.52;2067854;83;22103;-70
2021/08/09 03:33:38;;;;;;;5.72;1.30;;;;;;;13.34;71.58;100472.86;2067187;83;21626;-73
2021/08/09 03:36:45;;;;;;;7.22;1.62;;;;;;;13.29;71.81;100481.05;2074141;83;21209;-71
2021/08/09 03:39:46;;;;;;;4.00;1.22;;;;;;;13.30;71.82;100484.06;2071185;83;21114;-70
2021/08/09 03:42:47;;;;;;;4.65;1.40;;;;;;;13.31;71.73;100487.05;2065054;83;21075;-70
2021/08/09 03:45:48;;;;;;;3.20;1.55;;;;;;;13.29;71.69;100485.05;2054226;84;21068;-75
2021/08/09 03:48:49;;;;;;;2.87;1.20;;;;;;;13.32;71.85;100492.22;2020465;85;21278;-75
2021/08/09 03:51:50;;;;;;;3.40;1.20;;;;;;;13.34;71.74;100488.02;2027038;85;21114;-72
2021/08/09 03:54:52;;;;;;;2.05;1.47;;;;;;;13.35;71.94;100487.86;2028745;85;21699;-71
2021/08/09 03:57:53;;;;;;;6.83;1.50;;;;;;;13.36;71.83;100494.02;2028782;85;21718;-70
2021/08/09 04:00:54;;;;;;;9.63;1.90;;;;;;;13.37;71.90;100503.16;2027644;85;21034;-70
2021/08/09 04:03:56;;;;;;;4.20;1.60;;;;;;;13.51;72.26;100502.08;2024669;86;21127;-70
2021/08/09 04:06:58;;;;;;;2.98;1.60;;;;;;;13.79;72.22;100506.39;2040807;83;21145;-70
2021/08/09 04:09:59;;;;;;;4.80;1.40;;;;;;;14.04;71.93;100513.19;2014031;86;21731;-71
2021/08/09 04:13:01;;;;;;;2.58;1.37;;;;;;;14.33;71.68;100503.58;2068530;83;21563;-70
2021/08/09 04:16:03;;;;;;;1.72;1.35;;;;;;;14.69;71.51;100513.59;2079664;83;21107;-71
2021/08/09 04:19:05;;;;;;;2.12;1.42;;;;;;;15.05;71.07;100504.32;2062808;83;21164;-70
2021/08/09 04:22:07;;;;;;;4.62;1.50;;;;;;;15.39;70.88;100510.38;2069100;84;21043;-76
2021/08/09 04:25:09;;;;;;;4.15;1.50;;;;;;;15.82;70.62;100505.59;2065588;83;21576;-70
2021/08/09 04:28:10;;;;;;;1.90;1.27;;;;;;;16.23;70.30;100507.61;2066810;84;21004;-70
2021/08/09 04:31:12;;;;;;;5.25;1.60;;;;;;;16.58;69.76;100511.98;2069723;83;21099;-70
2021/08/09 04:34:14;;;;;;;2.25;1.60;;;;;;;17.01;69.68;100519.05;2071097;83;21084;-73
2021/08/09 04:37:17;;;;;;;2.10;1.37;;;;;;;17.47;69.33;100519.73;2063225;83;21105;-70
2021/08/09 04:40:18;;;;;;;3.98;1.40;;;;;;;17.95;68.54;100525.53;2069114;83;21122;-75
2021/08/09 04:43:20;;;;;;;1.92;1.32;;;;;;;18.42;68.05;100524.50;2056450;84;21140;-69
2021/08/09 04:46:21;;;;;;;4.53;1.47;;;;;;;18.84;67.34;100526.42;2078258;81;21149;-71
2021/08/09 04:49:24;;;;;;;4.92;1.47;;;;;;;19.18;66.76;100529.30;2088823;83;21615;-74
2021/08/09 04:52:25;;;;;;;4.10;1.25;;;;;;;19.51;66.04;100528.30;2086060;82;21077;-73
2021/08/09 04:55:27;;;;;;;4.08;1.47;;;;;;;19.76;65.33;100530.26;2085603;83;21173;-70
2021/08/09 04:58:29;;;;;;;2.40;1.25;;;;;;;20.07;65.03;100528.06;2089547;83;21112;-69
2021/08/09 05:01:31;;;;;;;3.75;1.20;;;;;;;20.48;64.33;100536.13;2086351;83;21032;-72
2021/08/09 05:04:32;;;;;;;2.25;1.42;;;;;;;20.74;63.68;100537.75;2088877;83;21848;-70
2021/08/09 05:07:33;;;;;;;3.15;1.27;;;;;;;21.10;63.51;100549.61;2076392;82;21035;-68
2021/08/09 05:10:35;;;;;;;2.00;1.05;;;;;;;21.52;62.73;100549.20;2090265;82;21118;-69
2021/08/09 05:13:36;;;;;;;1.25;1.07;;;;;;;21.88;62.00;100559.09;2080991;82;21075;-72
2021/08/09 05:16:39;;;;;;;2.33;1.57;;;;;;;22.16;61.58;100556.28;2094169;82;21430;-68
2021/08/09 05:19:42;;;;;;;7.25;1.40;;;;;;;22.42;61.11;100564.50;2092493;82;21627;-70
2021/08/09 05:22:43;;;;;;;4.53;1.30;;;;;;;22.60;59.80;100571.12;2071321;83;21963;-73
2021/08/09 05:25:44;;;;;;;3.58;1.30;;;;;;;22.51;59.58;100577.14;2088282;83;21048;-74
2021/08/09 05:28:45;;;;;;;4.85;1.50;;;;;;;22.72;58.29;100571.66;2098480;81;21064;-73
2021/08/09 05:31:46;;;;;;;5.25;1.20;;;;;;;22.54;57.80;100579.37;2080130;82;21699;-73
2021/08/09 05:34:48;;;;;;;1.27;1.15;;;;;;;22.48;57.60;100581.66;2091696;82;21040;-72
2021/08/09 05:37:49;;;;;;;6.60;1.50;;;;;;;22.45;57.24;100583.48;2096142;82;21085;-73
2021/08/09 05:40:51;;;;;;;1.87;1.30;;;;;;;22.54;57.16;100580.72;2082736;83;21067;-74
2021/08/09 05:43:53;;;;;;;2.75;1.85;;;;;;;22.68;56.88;100588.89;2087866;81;21084;-74
2021/08/09 05:46:55;;;;;;;2.37;1.30;;;;;;;22.81;56.67;100581.90;2089713;82;21039;-72
2021/08/09 05:49:57;;;;;;;1.70;1.20;;;;;;;22.97;56.33;100582.25;2063031;82;21224;-74
2021/08/09 05:52:59;;;;;;;4.20;1.60;;;;;;;23.16;55.92;100578.88;2101355;82;21096;-77
2021/08/09 05:56:00;;;;;;;1.25;1.10;;;;;;;23.26;54.93;100580.45;2086951;82;21093;-72
2021/08/09 05:59:04;;;;;;;4.42;1.22;;;;;;;23.26;55.18;100587.22;2086511;82;21079;-70
2021/08/09 06:02:05;;;;;;;5.30;1.30;;;;;;;23.46;54.86;100584.10;2093664;82;21684;-73
2021/08/09 06:05:09;;;;;;;2.12;1.30;;;;;;;23.71;54.83;100585.98;2073653;83;21061;-71
2021/08/09 06:08:11;;;;;;;5.10;2.10;;;;;;;24.01;54.31;100588.12;2074083;83;21078;-74
2021/08/09 06:11:13;;;;;;;3.87;1.70;;;;;;;24.13;53.62;100582.94;2076826;83;21578;-72
2021/08/09 06:14:15;;;;;;;4.42;1.45;;;;;;;24.27;52.99;100583.95;2090757;82;22888;-69
2021/08/09 06:17:17;;;;;;;1.50;1.22;;;;;;;24.49;53.13;100586.23;2045600;84;21097;-67
2021/08/09 06:20:19;;;;;;;2.47;1.10;;;;;;;24.79;52.86;100584.52;2010434;85;21136;-69
2021/08/09 06:23:20;;;;;;;1.70;1.10;;;;;;;24.94;51.88;100581.19;2016526;86;21089;-68
2021/08/09 06:26:22;;;;;;;1.55;1.15;;;;;;;25.13;51.58;100585.79;2060510;83;21054;-68
2021/08/09 06:29:24;;;;;;;2.45;1.32;;;;;;;25.47;50.34;100587.05;2036775;84;21225;-71
2021/08/09 06:32:26;;;;;;;1.85;1.10;;;;;;;25.61;49.69;100591.01;2041158;84;21176;-68
2021/08/09 06:35:27;;;;;;;4.00;1.30;;;;;;;25.67;49.03;100597.31;2043603;85;21107;-71
2021/08/09 06:38:28;;;;;;;1.92;1.15;;;;;;;25.79;48.00;100588.50;2050621;85;21140;-68
2021/08/09 06:41:34;;;;;;;5.60;1.60;;;;;;;25.82;47.67;100596.65;2009055;85;21085;-70
2021/08/09 06:44:37;;;;;;;2.58;1.05;;;;;;;26.05;47.25;100600.46;2040628;84;21085;-68
2021/08/09 06:47:39;;;;;;;6.80;2.22;;;;;;;26.25;47.39;100597.09;2074565;83;21143;-67
2021/08/09 06:50:42;;;;;;;2.92;1.52;;;;;;;26.53;46.41;100603.34;2052644;83;21071;-69
2021/08/09 06:53:44;;;;;;;2.20;1.30;;;;;;;26.65;46.06;100595.80;2079021;83;21066;-69
2021/08/09 06:56:47;;;;;;;5.65;1.40;;;;;;;26.69;44.44;100597.44;2070198;82;21120;-68
2021/08/09 06:59:49;;;;;;;1.42;1.00;;;;;;;26.74;44.82;100596.94;2051574;84;21118;-67
2021/08/09 07:02:51;;;;;;;1.47;1.17;;;;;;;26.88;43.62;100599.20;2060446;84;21125;-67
2021/08/09 07:05:52;;;;;;;3.62;1.42;;;;;;;26.65;44.12;100604.50;2014176;85;21156;-69
2021/08/09 07:08:55;;;;;;;5.65;1.20;;;;;;;26.72;43.75;100603.72;2010768;85;21208;-69
2021/08/09 07:11:57;;;;;;;2.60;1.40;;;;;;;26.81;43.21;100609.78;2017026;85;21179;-69
2021/08/09 07:14:59;;;;;;;1.70;1.10;;;;;;;26.86;43.53;100602.72;2024410;85;21597;-67
2021/08/09 07:18:01;;;;;;;4.25;1.40;;;;;;;26.90;42.94;100611.47;2009718;85;21068;-68
2021/08/09 07:21:03;;;;;;;3.35;1.20;;;;;;;26.71;42.48;100600.73;2024871;85;21679;-71
2021/08/09 07:24:05;;;;;;;3.30;1.40;;;;;;;26.57;42.85;100607.16;2032858;84;21091;-66
2021/08/09 07:27:07;;;;;;;1.80;1.55;;;;;;;26.85;43.01;100607.89;2014358;85;21148;-67
2021/08/09 07:30:13;;;;;;;1.92;1.20;;;;;;;26.82;41.61;100614.14;2018598;85;21710;-68
2021/08/09 07:33:14;;;;;;;2.42;1.45;;;;;;;26.69;42.06;100605.06;2029017;85;21163;-69
2021/08/09 07:36:16;;;;;;;4.70;1.70;;;;;;;26.72;41.92;100608.64;2015202;85;21700;-68
2021/08/09 07:39:17;;;;;;;4.47;1.42;;;;;;;26.95;41.57;100601.16;2025965;85;21149;-68
2021/08/09 07:42:19;;;;;;;1.80;1.30;;;;;;;27.03;40.77;100606.08;2012039;85;21261;-69
2021/08/09 07:45:21;;;;;;;3.62;1.37;;;;;;;26.95;41.04;100601.16;2044548;84;21064;-68
2021/08/09 07:48:23;;;;;;;3.25;1.07;;;;;;;26.91;41.00;100604.93;2035760;85;21661;-69
2021/08/09 07:51:26;;;;;;;2.47;1.50;;;;;;;27.03;39.68;100601.99;2029347;84;21097;-69
2021/08/09 07:54:28;;;;;;;2.95;1.40;;;;;;;26.99;40.29;100604.98;2067521;83;21839;-68
2021/08/09 07:57:29;;;;;;;3.65;1.00;;;;;;;27.20;39.80;100601.31;2065229;83;21009;-69
2021/08/09 08:00:31;;;;;;;3.17;1.10;;;;;;;27.32;39.67;100600.27;2065810;83;21181;-69
2021/08/09 08:03:33;;;;;;;2.17;1.20;;;;;;;27.52;39.92;100604.42;2063702;83;21621;-71
2021/08/09 08:06:35;;;;;;;2.25;1.10;;;;;;;27.98;39.74;100601.82;2063706;83;21133;-68
2021/08/09 08:09:37;;;;;;;1.95;1.22;;;;;;;28.16;38.87;100597.21;2049384;82;21651;-68
2021/08/09 08:12:39;;;;;;;2.20;1.07;;;;;;;28.21;38.57;100603.20;2071298;83;21087;-72
2021/08/09 08:15:40;;;;;;;2.05;1.10;;;;;;;28.33;37.72;100600.22;2041153;84;21682;-69
2021/08/09 08:18:43;;;;;;;2.05;1.25;;;;;;;28.27;37.95;100604.02;1992109;86;21091;-67
2021/08/09 08:21:44;;;;;;;3.75;1.60;;;;;;;28.44;37.48;100605.98;2047448;84;21554;-67
2021/08/09 08:24:46;;;;;;;1.30;1.10;;;;;;;28.38;38.10;100602.92;2071805;83;21535;-70
2021/08/09 08:27:48;;;;;;;2.95;1.10;;;;;;;28.66;37.58;100608.94;2083153;83;21083;-68
2021/08/09 08:30:51;;;;;;;2.08;0.90;;;;;;;28.73;36.91;100606.75;2060678;83;21095;-67
2021/08/09 08:33:52;;;;;;;3.55;1.57;;;;;;;28.56;36.88;100600.23;2070852;83;21127;-68
2021/08/09 08:36:54;;;;;;;2.98;1.15;;;;;;;28.47;36.75;100598.60;2077208;82;21454;-70
2021/08/09 08:39:56;;;;;;;0.95;0.85;;;;;;;28.55;36.48;100598.05;2053239;83;21184;-67
2021/08/09 08:42:58;;;;;;;4.75;1.35;;;;;;;28.63;36.62;100599.94;2077578;83;21575;-67
2021/08/09 08:46:05;;;;;;;1.55;1.07;;;;;;;28.77;36.23;100601.81;2074394;83;21505;-68
2021/08/09 08:49:13;;;;;;;2.12;0.93;;;;;;;28.61;36.00;100601.59;2072227;83;21100;-72
2021/08/09 08:52:11;;;;;;;2.90;1.20;;;;;;;28.70;36.53;100601.30;2078522;83;22740;-69
2021/08/09 08:55:16;;;;;;;1.98;1.30;;;;;;;28.84;36.11;100604.27;2069508;83;21154;-68
2021/08/09 08:58:17;;;;;;;2.15;1.20;;;;;;;28.83;36.10;100603.98;2082322;83;21114;-67
2021/08/09 09:01:39;;;;;;;3.00;1.27;;;;;;;29.04;36.02;100595.23;2082271;82;21675;-67
2021/08/09 09:04:40;;;;;;;1.82;1.20;;;;;;;29.22;35.38;100595.97;2081198;82;22313;-68
2021/08/09 09:07:47;;;;;;;2.05;1.10;;;;;;;29.32;35.44;100595.12;2064997;83;21709;-69
2021/08/09 09:10:48;;;;;;;4.08;1.07;;;;;;;29.39;35.25;100593.44;2071172;83;21067;-71
2021/08/09 09:14:00;;;;;;;3.05;1.30;;;;;;;29.23;35.28;100592.71;2066915;83;21204;-68
2021/08/09 09:17:01;;;;;;;1.12;1.02;;;;;;;29.10;34.73;100594.67;2082235;82;21141;-67
2021/08/09 09:20:26;;;;;;;2.30;1.30;;;;;;;28.95;34.76;100597.69;2068137;83;21080;-68
2021/08/09 09:23:31;;;;;;;3.65;1.20;;;;;;;29.03;34.90;100598.52;2087439;82;22402;-68
2021/08/09 09:26:32;;;;;;;1.60;1.00;;;;;;;29.20;34.98;100599.55;2080231;83;21154;-69
2021/08/09 09:29:37;;;;;;;1.70;1.02;;;;;;;28.98;34.50;100600.42;2092722;83;21372;-68
2021/08/09 09:32:40;;;;;;;1.32;1.00;;;;;;;29.07;34.92;100596.59;2068991;83;22049;-68
2021/08/09 09:35:42;;;;;;;2.42;1.40;;;;;;;29.09;34.08;100597.11;2051682;82;21111;-67
2021/08/09 09:38:45;;;;;;;1.75;1.17;;;;;;;29.07;33.52;100602.87;2085474;82;21099;-68
2021/08/09 09:41:54;;;;;;;4.35;1.20;;;;;;;28.98;33.69;100594.95;2043058;84;21103;-67
2021/08/09 09:44:56;;;;;;;4.90;1.20;;;;;;;28.98;33.29;100593.03;2081500;83;21152;-67
2021/08/09 09:48:10;;;;;;;2.37;1.20;;;;;;;28.78;34.24;100584.36;2072608;82;21125;-69
2021/08/09 09:51:15;;;;;;;4.30;1.12;;;;;;;28.89;33.90;100591.14;2085632;83;21490;-69
2021/08/09 09:54:17;;;;;;;2.80;1.07;;;;;;;28.94;33.64;100582.94;2073853;82;21071;-69
2021/08/09 09:57:18;;;;;;;2.08;1.10;;;;;;;28.87;33.72;100586.52;2080836;83;21090;-71
2021/08/09 10:00:20;;;;;;;1.10;1.00;;;;;;;28.83;34.15;100578.88;2075027;83;21096;-69
2021/08/09 10:03:21;;;;;;;2.40;1.35;;;;;;;28.93;33.40;100579.94;2071559;82;21095;-70
2021/08/09 10:06:23;;;;;;;2.08;1.27;;;;;;;28.73;33.19;100576.17;1974963;81;21167;-71
2021/08/09 10:09:25;;;;;;;3.05;1.10;;;;;;;28.63;33.53;100573.45;1952168;88;22193;-70
2021/08/09 10:12:30;;;;;;;1.62;0.95;;;;;;;28.83;33.33;100576.16;1953362;89;21117;-69
2021/08/09 10:15:32;;;;;;;1.17;1.05;;;;;;;28.95;33.33;100579.94;1954125;89;21121;-69
2021/08/09 10:18:40;;;;;;;2.55;1.50;;;;;;;29.22;33.49;100577.40;1951700;88;21149;-69
2021/08/09 10:21:42;;;;;;;2.42;1.10;;;;;;;29.14;32.54;100569.78;1951861;88;21628;-73
2021/08/09 10:24:43;;;;;;;3.55;1.30;;;;;;;29.24;33.62;100583.41;1951397;88;21879;-71
2021/08/09 10:27:51;;;;;;;1.67;1.10;;;;;;;29.43;33.38;100591.80;1954775;88;21139;-70
2021/08/09 10:30:52;;;;;;;1.95;1.45;;;;;;;29.45;32.11;100593.68;1952476;89;21113;-70
2021/08/09 10:33:55;;;;;;;3.17;1.20;;;;;;;29.43;32.63;100572.11;1957709;88;21123;-70
2021/08/09 10:37:09;;;;;;;2.58;1.10;;;;;;;29.42;32.73;100589.59;1961869;88;22834;-70
2021/08/09 10:40:16;;;;;;;2.60;1.40;;;;;;;29.35;32.38;100582.81;1951077;88;21593;-72
2021/08/09 10:43:17;;;;;;;2.02;1.17;;;;;;;29.26;32.19;100584.77;1952551;88;21176;-70
2021/08/09 10:46:42;;;;;;;2.02;1.20;;;;;;;29.31;32.30;100581.73;1958076;87;21082;-72
2021/08/09 10:49:47;;;;;;;3.25;1.00;;;;;;;29.35;32.83;100584.19;1953395;88;21137;-70
2021/08/09 10:52:49;;;;;;;1.65;1.15;;;;;;;29.53;32.95;100579.42;1953668;88;21110;-71
2021/08/09 10:55:55;;;;;;;3.83;1.52;;;;;;;29.53;32.43;100580.80;1955439;88;22640;-70
2021/08/09 10:58:57;;;;;;;0.78;0.78;;;;;;;29.47;32.06;100577.27;1949425;89;21672;-68
2021/08/09 11:02:00;;;;;;;2.05;1.10;;;;;;;29.47;32.57;100573.72;1960199;88;21160;-71
2021/08/09 11:05:19;;;;;;;3.75;1.10;;;;;;;29.50;31.37;100567.14;1951312;88;21172;-68
2021/08/09 11:08:27;;;;;;;2.17;1.17;;;;;;;29.03;32.01;100566.27;1957287;88;21172;-71
2021/08/09 11:11:32;;;;;;;2.62;1.32;;;;;;;28.98;32.22;100577.20;1954510;88;21097;-67
2021/08/09 11:15:11;;;;;;;1.52;0.95;;;;;;;28.81;32.33;100587.08;1938756;88;21116;-68
2021/08/09 11:18:18;;;;;;;2.45;1.27;;;;;;;28.68;32.04;100580.83;1957889;89;21200;-72
2021/08/09 11:21:19;;;;;;;3.22;0.80;;;;;;;28.51;32.07;100581.94;1945415;88;21442;-70
2021/08/09 11:24:34;;;;;;;4.92;1.95;;;;;;;28.59;32.11;100576.47;1954349;88;21097;-70
2021/08/09 11:27:35;;;;;;;1.80;1.10;;;;;;;28.78;32.04;100578.89;1959665;88;21140;-68
2021/08/09 11:30:51;;;;;;;1.82;1.17;;;;;;;28.88;32.07;100580.77;1961173;88;21514;-68
2021/08/09 11:33:54;;;;;;;3.80;1.30;;;;;;;28.91;32.09;100581.58;1965381;88;21081;-69
2021/08/09 11:37:04;;;;;;;14.07;1.70;;;;;;;28.80;31.79;100581.33;1957493;88;21579;-71
2021/08/09 11:40:07;;;;;;;1.40;1.05;;;;;;;28.78;32.06;100573.44;1960252;87;21201;-72
2021/08/09 11:43:11;;;;;;;3.80;1.60;;;;;;;28.71;32.26;100575.62;1955290;88;21128;-70
2021/08/09 11:46:16;;;;;;;2.35;1.10;;;;;;;28.77;32.55;100579.97;1957156;88;21731;-70
2021/08/09 11:49:20;;;;;;;1.60;1.30;;;;;;;28.84;31.89;100570.14;1958801;88;21127;-71
2021/08/09 11:52:22;;;;;;;1.50;1.20;;;;;;;28.79;32.59;100566.87;1954678;89;21127;-71
2021/08/09 11:55:23;;;;;;;3.08;1.10;;;;;;;28.87;32.20;100565.48;1957510;88;21196;-72
2021/08/09 11:58:31;;;;;;;5.05;1.02;;;;;;;28.85;32.77;100570.95;1948659;88;21097;-82
2021/08/09 12:01:37;;;;;;;1.52;1.10;;;;;;;28.82;32.63;100568.23;1953651;88;21150;-75
2021/08/09 12:04:42;;;;;;;2.17;1.00;;;;;;;28.74;32.40;100566.06;1960324;88;21176;-70
2021/08/09 12:07:43;;;;;;;4.08;1.25;;;;;;;28.80;32.32;100564.95;1959384;88;21395;-69
2021/08/09 12:10:45;;;;;;;1.62;1.22;;;;;;;28.75;32.36;100559.52;1955815;88;21643;-70
2021/08/09 12:13:46;;;;;;;1.72;1.25;;;;;;;28.73;32.39;100556.25;1959071;87;21075;-71
2021/08/09 12:16:55;;;;;;;1.72;1.05;;;;;;;28.66;32.97;100552.42;1951285;88;21148;-70
2021/08/09 12:19:56;;;;;;;3.90;1.00;;;;;;;28.79;32.79;100548.30;1958889;88;21071;-79
2021/08/09 12:22:57;;;;;;;3.42;1.25;;;;;;;28.89;32.29;100548.80;1956805;88;21139;-78
2021/08/09 12:25:59;;;;;;;2.67;0.93;;;;;;;28.54;32.50;100555.45;1950530;88;21163;-67
2021/08/09 12:29:06;;;;;;;1.80;1.07;;;;;;;28.46;32.33;100557.38;1937683;88;21504;-69
2021/08/09 12:32:16;;;;;;;3.02;1.25;;;;;;;28.12;32.12;100555.19;1960830;88;21091;-69
2021/08/09 12:35:21;;;;;;;2.80;1.00;;;;;;;27.92;32.62;100552.46;1939229;89;21203;-67
2021/08/09 12:38:22;;;;;;;2.35;1.10;;;;;;;28.02;32.82;100547.58;1951147;89;21229;-68
2021/08/09 12:41:27;;;;;;;4.00;1.17;;;;;;;28.05;33.17;100542.39;1961663;88;21778;-72
2021/08/09 12:44:31;;;;;;;2.42;1.25;;;;;;;28.23;32.74;100543.73;1950174;88;21160;-69
2021/08/09 12:47:32;;;;;;;2.50;1.20;;;;;;;28.34;32.78;100538.53;1951844;88;21103;-70
2021/08/09 12:50:36;;;;;;;2.42;1.17;;;;;;;28.31;32.98;100538.28;1957276;87;21107;-71
2021/08/09 12:53:38;;;;;;;2.60;1.30;;;;;;;28.20;32.30;100538.02;1961626;88;21240;-84
2021/08/09 12:56:39;;;;;;;0.93;0.90;;;;;;;27.86;32.51;100534.47;1945547;89;21154;-82
2021/08/09 12:59:40;;;;;;;0.85;0.80;;;;;;;27.48;32.96;100531.09;1933158;89;21168;-78
2021/08/09 13:02:42;;;;;;;2.02;1.20;;;;;;;27.07;32.74;100533.68;1958095;88;21181;-76
2021/08/09 13:05:43;;;;;;;5.08;1.17;;;;;;;26.76;33.50;100534.08;1955123;89;21119;-72
2021/08/09 13:08:45;;;;;;;;;;;;;;;26.57;33.69;100535.05;1932806;89;21156;-73
2021/08/09 13:11:46;;;;;;;2.87;1.20;;;;;;;26.45;34.28;100539.85;1957878;88;20208;-76
2021/08/09 13:14:49;;;;;;;1.25;0.95;;;;;;;26.23;34.19;100535.88;1956671;89;21084;-70
2021/08/09 13:17:50;;;;;;;1.95;1.32;;;;;;;26.25;34.13;100531.83;1962205;88;21084;-71
2021/08/09 13:20:53;;;;;;;1.07;0.95;;;;;;;26.24;34.42;100534.80;1952565;88;21400;-75
2021/08/09 13:23:55;;;;;;;4.95;1.32;;;;;;;26.15;34.63;100538.53;1956057;88;21193;-70
2021/08/09 13:26:57;;;;;;;3.15;1.22;;;;;;;26.12;34.76;100534.44;1931894;88;21620;-69
2021/08/09 13:30:01;;;;;;;1.22;1.00;;;;;;;25.99;35.76;100530.81;1948794;88;21098;-73
2021/08/09 13:33:03;;;;;;;1.60;1.45;;;;;;;26.22;35.83;100530.17;1961398;88;21110;-72
2021/08/09 13:36:05;;;;;;;2.55;1.25;;;;;;;26.48;35.26;100520.28;1950767;88;21086;-74
2021/08/09 13:39:06;;;;;;;2.90;1.30;;;;;;;26.55;35.01;100524.45;1956125;88;21104;-70
2021/08/09 13:42:07;;;;;;;3.33;1.05;;;;;;;26.54;34.70;100526.06;1955155;88;21112;-70
2021/08/09 13:45:10;;;;;;;1.92;1.12;;;;;;;26.69;35.14;100520.69;1963894;87;21131;-69
2021/08/09 13:48:11;;;;;;;1.22;1.12;;;;;;;26.63;35.34;100514.95;1965344;87;21630;-72
2021/08/09 13:51:13;;;;;;;2.77;1.15;;;;;;;26.67;35.19;100516.62;1927389;88;21161;-71
2021/08/09 13:54:14;;;;;;;1.50;1.20;;;;;;;26.74;35.08;100511.20;1923195;89;21116;-77
2021/08/09 13:57:17;;;;;;;2.45;1.12;;;;;;;26.87;34.80;100513.18;1950337;89;21232;-71
2021/08/09 14:00:20;;;;;;;2.60;1.10;;;;;;;26.89;34.41;100502.30;1952506;88;21106;-71
2021/08/09 14:03:22;;;;;;;1.02;1.00;;;;;;;26.78;34.39;100505.52;1951143;88;21114;-71
2021/08/09 14:06:23;;;;;;;1.35;1.10;;;;;;;26.88;34.25;100505.28;1952750;89;21416;-73
2021/08/09 14:09:25;;;;;;;3.35;1.62;;;;;;;26.98;34.88;100497.16;1958598;88;21109;-74
2021/08/09 14:12:27;;;;;;;4.33;1.30;;;;;;;26.99;34.90;100498.24;1959761;88;21139;-71